createdAt,value
2023-01-03T00:01:11.282Z,102048.84
2023-01-03T00:03:57.624Z,102045.59
2023-01-03T00:06:48.521Z,102043.56
2023-01-03T00:09:33.365Z,102055.28
2023-01-03T00:12:30.151Z,102050.66
2023-01-03T00:15:15.821Z,102048.72
2023-01-03T00:18:01.026Z,102050.38
2023-01-03T00:20:45.853Z,102049.91
2023-01-03T00:23:30.810Z,102055.66
2023-01-03T00:26:15.793Z,102051.81
2023-01-03T00:29:01.429Z,102057.16
2023-01-03T00:31:46.887Z,102057.31
2023-01-03T00:34:32.135Z,102065.53
2023-01-03T00:37:16.914Z,102066.19
2023-01-03T00:40:02.501Z,102067.25
2023-01-03T00:43:06.197Z,102061.59
2023-01-03T00:45:51.408Z,102072.44
2023-01-03T00:48:36.913Z,102081.44
2023-01-03T00:51:24.859Z,102074.19
2023-01-03T00:54:11.080Z,102060.94
2023-01-03T00:56:56.265Z,102055.47
2023-01-03T00:59:41.022Z,102045.06
2023-01-03T01:02:26.397Z,102046.84
2023-01-03T01:05:11.313Z,102039.44
2023-01-03T01:07:56.552Z,102047.88
2023-01-03T01:11:01.608Z,102051.88
2023-01-03T01:13:46.825Z,102060.53
2023-01-03T01:16:32.361Z,102056.28
2023-01-03T01:19:19.731Z,102054.94
2023-01-03T01:22:04.888Z,102056.28
2023-01-03T01:24:49.816Z,102064.66
2023-01-03T01:27:34.520Z,102064.13
2023-01-03T01:30:19.632Z,102059.19
2023-01-03T01:33:04.683Z,102058.94
2023-01-03T01:35:49.932Z,102063.69
2023-01-03T01:38:35.672Z,102075.41
2023-01-03T01:41:40.796Z,102072.34
2023-01-03T01:44:54.555Z,102081.75
2023-01-03T01:47:51.280Z,102081.22
2023-01-03T01:50:45.536Z,102092.91
2023-01-03T01:53:34.165Z,102093.25
2023-01-03T01:56:27.887Z,102092.81
2023-01-03T01:59:14.111Z,102096.09
2023-01-03T02:01:59.453Z,102100.63
2023-01-03T02:04:46.513Z,102106.31
2023-01-03T02:07:31.267Z,102103.75
2023-01-03T02:10:18.519Z,102112.84
2023-01-03T02:13:18.791Z,102110.28
2023-01-03T02:16:25.831Z,102111.59
2023-01-03T02:19:22.295Z,102115.25
2023-01-03T02:22:32.503Z,102116.41
2023-01-03T02:25:36.812Z,102113.78
2023-01-03T02:28:36.267Z,102116.75
2023-01-03T02:31:48.664Z,102121.34
2023-01-03T02:34:37.851Z,102115.34
2023-01-03T02:37:32.038Z,102114.09
2023-01-03T02:40:25.525Z,102117.97
2023-01-03T02:43:20.634Z,102122.41
2023-01-03T02:46:08.998Z,102117.84
2023-01-03T02:49:02.866Z,102119.97
2023-01-03T02:51:54.349Z,102119.84
2023-01-03T02:54:56.991Z,102118.25
2023-01-03T02:58:09.004Z,102107.22
2023-01-03T03:00:56.163Z,102106.63
2023-01-03T03:03:41.364Z,102100.81
2023-01-03T03:06:35.585Z,102102.63
2023-01-03T03:09:20.549Z,102103.34
2023-01-03T03:12:24.385Z,102101.78
2023-01-03T03:15:14.371Z,102109.75
2023-01-03T03:18:06.163Z,102107.97
2023-01-03T03:21:14.716Z,102098.81
2023-01-03T03:24:25.864Z,102105.03
2023-01-03T03:27:33.733Z,102100.81
2023-01-03T03:30:22.070Z,102111.66
2023-01-03T03:33:08.785Z,102115.69
2023-01-03T03:35:54.936Z,102114.09
2023-01-03T03:38:43.607Z,102112.31
2023-01-03T03:41:54.588Z,102105.91
2023-01-03T03:45:02.652Z,102111.78
2023-01-03T03:48:19.739Z,102104.09
2023-01-03T03:51:14.269Z,102109.59
2023-01-03T03:54:03.246Z,102107.16
2023-01-03T03:56:54.406Z,102107.97
2023-01-03T03:59:43.640Z,102106.13
2023-01-03T04:02:32.508Z,102106.41
2023-01-03T04:05:23.037Z,102110.09
2023-01-03T04:08:08.522Z,102118.00
2023-01-03T04:11:05.337Z,102124.19
2023-01-03T04:13:50.339Z,102126.53
2023-01-03T04:16:37.428Z,102129.19
2023-01-03T04:19:22.364Z,102130.44
2023-01-03T04:22:07.268Z,102116.94
2023-01-03T04:24:52.390Z,102120.81
2023-01-03T04:27:37.560Z,102116.28
2023-01-03T04:30:22.865Z,102113.38
2023-01-03T04:33:08.195Z,102122.94
2023-01-03T04:35:53.021Z,102127.16
2023-01-03T04:38:38.123Z,102123.91
2023-01-03T04:41:23.295Z,102118.38
2023-01-03T04:44:09.217Z,102127.00
2023-01-03T04:46:54.557Z,102125.13
2023-01-03T04:49:39.637Z,102125.44
2023-01-03T04:52:24.666Z,102115.97
2023-01-03T04:55:10.218Z,102119.13
2023-01-03T04:57:55.018Z,102119.69
2023-01-03T05:00:40.311Z,102122.72
2023-01-03T05:03:27.955Z,102128.84
2023-01-03T05:06:13.602Z,102133.28
2023-01-03T05:08:58.872Z,102135.69
2023-01-03T05:11:44.836Z,102133.69
2023-01-03T05:14:29.796Z,102133.41
2023-01-03T05:17:14.905Z,102128.13
2023-01-03T05:20:18.277Z,102133.19
2023-01-03T05:23:21.988Z,102129.78
2023-01-03T05:26:13.482Z,102123.91
2023-01-03T05:28:58.717Z,102126.97
2023-01-03T05:31:43.995Z,102133.19
2023-01-03T05:34:29.133Z,102125.44
2023-01-03T05:37:14.257Z,102126.31
2023-01-03T05:39:59.427Z,102132.81
2023-01-03T05:42:44.304Z,102131.63
2023-01-03T05:45:29.152Z,102135.16
2023-01-03T05:48:14.091Z,102139.50
2023-01-03T05:50:59.015Z,102130.28
2023-01-03T05:53:44.213Z,102153.75
2023-01-03T05:56:31.347Z,102151.97
2023-01-03T05:59:16.505Z,102151.72
2023-01-03T06:02:01.629Z,102157.22
2023-01-03T06:04:47.004Z,102154.16
2023-01-03T06:07:33.864Z,102157.88
2023-01-03T06:10:18.720Z,102161.09
2023-01-03T06:13:03.683Z,102160.69
2023-01-03T06:16:08.610Z,102160.59
2023-01-03T06:18:54.328Z,102154.25
2023-01-03T06:21:41.339Z,102148.59
2023-01-03T06:24:26.401Z,102157.81
2023-01-03T06:27:11.237Z,102145.28
2023-01-03T06:29:56.725Z,102155.19
2023-01-03T06:32:42.015Z,102141.16
2023-01-03T06:35:26.860Z,102151.69
2023-01-03T06:38:11.926Z,102145.50
2023-01-03T06:40:56.991Z,102149.53
2023-01-03T06:43:42.334Z,102144.44
2023-01-03T06:46:46.288Z,102139.38
2023-01-03T06:49:49.791Z,102142.75
2023-01-03T06:52:53.638Z,102139.84
2023-01-03T06:55:39.979Z,102139.75
2023-01-03T06:58:25.170Z,102148.59
2023-01-03T07:01:13.077Z,102145.44
2023-01-03T07:03:58.369Z,102149.25
2023-01-03T07:06:43.629Z,102148.78
2023-01-03T07:09:28.362Z,102156.47
2023-01-03T07:12:32.034Z,102152.16
2023-01-03T07:15:17.225Z,102152.66
2023-01-03T07:18:02.392Z,102154.25
2023-01-03T07:20:47.479Z,102160.16
2023-01-03T07:23:32.231Z,102159.78
2023-01-03T07:26:17.525Z,102171.50
2023-01-03T07:29:06.036Z,102175.97
2023-01-03T07:31:50.841Z,102166.25
2023-01-03T07:34:36.061Z,102169.72
2023-01-03T07:37:20.816Z,102169.44
2023-01-03T07:40:06.655Z,102163.78
2023-01-03T07:43:10.033Z,102169.16
2023-01-03T07:45:55.066Z,102171.78
2023-01-03T07:48:40.615Z,102175.72
2023-01-03T07:51:25.786Z,102179.00
2023-01-03T07:54:10.935Z,102168.16
2023-01-03T07:56:56.084Z,102178.19
2023-01-03T07:59:41.168Z,102166.03
2023-01-03T08:02:26.647Z,102163.56
2023-01-03T08:05:11.687Z,102166.94
2023-01-03T08:07:56.513Z,102166.53
2023-01-03T08:11:00.345Z,102160.00
2023-01-03T08:13:45.729Z,102148.44
2023-01-03T08:16:31.004Z,102162.25
2023-01-03T08:19:15.832Z,102162.91
2023-01-03T08:22:00.813Z,102158.38
2023-01-03T08:24:45.904Z,102160.47
2023-01-03T08:27:30.809Z,102164.06
2023-01-03T08:30:15.978Z,102164.50
2023-01-03T08:33:03.422Z,102166.94
2023-01-03T08:35:52.403Z,102169.78
2023-01-03T08:38:45.567Z,102167.78
2023-01-03T08:41:33.002Z,102166.28
2023-01-03T08:44:18.277Z,102165.44
2023-01-03T08:47:08.118Z,102177.34
2023-01-03T08:49:55.213Z,102173.88
2023-01-03T08:52:40.293Z,102169.78
2023-01-03T08:55:25.541Z,102176.97
2023-01-03T08:58:10.865Z,102182.34
2023-01-03T09:00:55.621Z,102174.78
2023-01-03T09:03:41.138Z,102174.97
2023-01-03T09:06:25.925Z,102172.03
2023-01-03T09:09:10.791Z,102174.34
2023-01-03T09:11:56.035Z,102179.31
2023-01-03T09:14:40.687Z,102174.47
2023-01-03T09:17:26.073Z,102182.16
2023-01-03T09:20:12.494Z,102175.47
2023-01-03T09:22:57.595Z,102174.91
2023-01-03T09:25:42.764Z,102174.69
2023-01-03T09:28:27.925Z,102178.03
2023-01-03T09:31:12.792Z,102173.13
2023-01-03T09:33:57.653Z,102173.75
2023-01-03T09:36:42.711Z,102165.03
2023-01-03T09:39:27.468Z,102167.56
2023-01-03T09:42:39.599Z,102164.59
2023-01-03T09:45:28.778Z,102172.75
2023-01-03T09:48:17.073Z,102163.84
2023-01-03T09:51:19.548Z,102162.47
2023-01-03T09:54:31.827Z,102162.22
2023-01-03T09:57:52.792Z,102154.09
2023-01-03T10:01:06.778Z,102155.16
2023-01-03T10:04:10.293Z,102151.44
2023-01-03T10:07:01.991Z,102160.94
2023-01-03T10:10:01.234Z,102157.59
2023-01-03T10:12:48.967Z,102147.94
2023-01-03T10:15:56.773Z,102152.53
2023-01-03T10:19:00.801Z,102163.19
2023-01-03T10:22:12.334Z,102163.50
2023-01-03T10:25:12.103Z,102159.38
2023-01-03T10:28:09.095Z,102156.66
2023-01-03T10:31:07.352Z,102156.66
2023-01-03T10:33:52.714Z,102156.34
2023-01-03T10:36:37.889Z,102149.94
2023-01-03T10:39:31.359Z,102156.75
2023-01-03T10:42:19.194Z,102150.16
2023-01-03T10:45:19.504Z,102147.34
2023-01-03T10:48:05.414Z,102131.78
2023-01-03T10:50:50.998Z,102139.72
2023-01-03T10:53:41.755Z,102135.84
2023-01-03T10:56:29.860Z,102135.13
2023-01-03T10:59:29.558Z,102132.94
2023-01-03T11:02:18.214Z,102124.56
2023-01-03T11:05:15.924Z,102134.06
2023-01-03T11:08:04.065Z,102129.44
2023-01-03T11:10:58.010Z,102120.66
2023-01-03T11:13:43.121Z,102124.81
2023-01-03T11:16:32.131Z,102119.84
2023-01-03T11:19:18.544Z,102124.34
2023-01-03T11:22:06.324Z,102122.16
2023-01-03T11:24:59.088Z,102127.16
2023-01-03T11:28:15.882Z,102121.94
2023-01-03T11:31:08.347Z,102121.22
2023-01-03T11:34:11.320Z,102127.22
2023-01-03T11:37:09.065Z,102127.03
2023-01-03T11:40:12.610Z,102119.03
2023-01-03T11:43:22.291Z,102119.00
2023-01-03T11:46:27.079Z,102115.06
2023-01-03T11:49:32.004Z,102111.97
2023-01-03T11:52:34.296Z,102112.56
2023-01-03T11:55:36.001Z,102109.88
2023-01-03T11:58:32.682Z,102109.56
2023-01-03T12:01:48.967Z,102096.25
2023-01-03T12:04:59.895Z,102097.81
2023-01-03T12:08:03.683Z,102093.78
2023-01-03T12:11:19.058Z,102088.81
2023-01-03T12:14:21.332Z,102084.50
2023-01-03T12:17:13.772Z,102087.63
2023-01-03T12:20:10.874Z,102082.59
2023-01-03T12:23:15.463Z,102077.28
2023-01-03T12:26:06.184Z,102082.91
2023-01-03T12:29:05.863Z,102081.28
2023-01-03T12:31:59.995Z,102079.28
2023-01-03T12:35:03.338Z,102072.47
2023-01-03T12:37:50.569Z,102081.03
2023-01-03T12:40:48.195Z,102073.47
2023-01-03T12:43:42.660Z,102078.13
2023-01-03T12:46:41.584Z,102072.13
2023-01-03T12:49:35.241Z,102075.88
2023-01-03T12:52:24.004Z,102071.50
2023-01-03T12:55:22.260Z,102065.25
2023-01-03T12:58:22.926Z,102069.81
2023-01-03T13:01:15.584Z,102064.16
2023-01-03T13:04:24.045Z,102059.09
2023-01-03T13:07:24.969Z,102062.53
2023-01-03T13:10:16.325Z,102056.34
2023-01-03T13:13:02.210Z,102060.56
2023-01-03T13:15:48.589Z,102054.13
2023-01-03T13:18:35.397Z,102056.41
2023-01-03T13:21:55.160Z,102055.44
2023-01-03T13:24:42.450Z,102059.81
2023-01-03T13:27:36.323Z,102050.38
2023-01-03T13:30:25.242Z,102053.97
2023-01-03T13:33:10.075Z,102055.94
2023-01-03T13:36:01.411Z,102060.19
2023-01-03T13:38:46.480Z,102056.75
2023-01-03T13:41:36.154Z,102054.13
2023-01-03T13:44:23.129Z,102053.22
2023-01-03T13:47:36.053Z,102044.59
2023-01-03T13:50:33.881Z,102051.41
2023-01-03T13:53:18.759Z,102054.28
2023-01-03T13:56:16.102Z,102054.78
2023-01-03T13:59:10.871Z,102054.59
2023-01-03T14:02:05.577Z,102060.53
2023-01-03T14:04:59.562Z,102057.19
2023-01-03T14:07:47.676Z,102062.16
2023-01-03T14:10:51.447Z,102055.94
2023-01-03T14:13:51.488Z,102057.25
2023-01-03T14:16:52.084Z,102060.09
2023-01-03T14:19:40.224Z,102055.53
2023-01-03T14:22:36.656Z,102053.78
2023-01-03T14:25:36.174Z,102068.19
2023-01-03T14:28:25.118Z,102078.09
2023-01-03T14:31:22.061Z,102070.63
2023-01-03T14:34:16.058Z,102069.44
2023-01-03T14:37:19.061Z,102068.63
2023-01-03T14:40:06.460Z,102065.50
2023-01-03T14:42:51.567Z,102069.88
2023-01-03T14:45:36.652Z,102079.25
2023-01-03T14:48:22.918Z,102071.69
2023-01-03T14:51:10.028Z,102082.50
2023-01-03T14:53:56.369Z,102079.88
2023-01-03T14:56:45.344Z,102075.41
2023-01-03T14:59:31.961Z,102083.38
2023-01-03T15:02:18.348Z,102086.13
2023-01-03T15:05:06.067Z,102086.00
2023-01-03T15:07:51.552Z,102090.94
2023-01-03T15:10:56.294Z,102090.69
2023-01-03T15:13:47.328Z,102094.56
2023-01-03T15:16:38.164Z,102098.38
2023-01-03T15:19:27.114Z,102103.53
2023-01-03T15:22:21.597Z,102100.75
2023-01-03T15:25:17.729Z,102098.25
2023-01-03T15:28:36.345Z,102104.00
2023-01-03T15:31:27.302Z,102105.31
2023-01-03T15:34:13.727Z,102092.94
2023-01-03T15:36:59.931Z,102098.00
2023-01-03T15:39:50.761Z,102094.47
2023-01-03T15:42:58.619Z,102092.75
2023-01-03T15:45:44.140Z,102096.59
2023-01-03T15:48:29.584Z,102093.44
2023-01-03T15:51:14.493Z,102088.22
2023-01-03T15:53:59.629Z,102097.06
2023-01-03T15:57:01.056Z,102084.50
2023-01-03T15:59:53.843Z,102082.34
2023-01-03T16:02:38.769Z,102086.50
2023-01-03T16:05:23.902Z,102083.16
2023-01-03T16:08:23.478Z,102080.94
2023-01-03T16:11:33.409Z,102087.41
2023-01-03T16:14:23.457Z,102091.03
2023-01-03T16:17:17.032Z,102097.56
2023-01-03T16:20:04.593Z,102101.69
2023-01-03T16:23:01.791Z,102090.59
2023-01-03T16:25:46.869Z,102087.59
2023-01-03T16:28:31.952Z,102083.88
2023-01-03T16:31:31.719Z,102086.22
2023-01-03T16:34:20.342Z,102105.41
2023-01-03T16:37:08.363Z,102099.94
2023-01-03T16:39:54.038Z,102089.38
2023-01-03T16:42:39.278Z,102078.22
2023-01-03T16:45:24.152Z,102086.06
2023-01-03T16:48:16.222Z,102088.81
2023-01-03T16:51:01.106Z,102089.28
2023-01-03T16:53:47.490Z,102100.50
2023-01-03T16:56:32.829Z,102095.44
2023-01-03T16:59:22.342Z,102080.72
2023-01-03T17:02:07.347Z,102085.78
2023-01-03T17:04:52.819Z,102093.22
2023-01-03T17:07:38.212Z,102100.97
2023-01-03T17:10:28.670Z,102091.56
2023-01-03T17:13:34.006Z,102096.97
2023-01-03T17:16:22.896Z,102098.69
2023-01-03T17:19:52.295Z,102101.09
2023-01-03T17:22:23.461Z,102097.19
2023-01-03T17:25:10.641Z,102099.09
2023-01-03T17:27:58.158Z,102092.88
2023-01-03T17:30:44.106Z,102100.38
2023-01-03T17:33:33.979Z,102103.19
2023-01-03T17:36:33.780Z,102097.88
2023-01-03T17:39:19.626Z,102100.81
2023-01-03T17:42:16.013Z,102104.81
2023-01-03T17:45:19.790Z,102095.84
2023-01-03T17:48:23.785Z,102103.34
2023-01-03T17:51:10.537Z,102099.03
2023-01-03T17:53:55.761Z,102100.91
2023-01-03T17:56:40.891Z,102113.38
2023-01-03T17:59:26.541Z,102109.88
2023-01-03T18:02:23.822Z,102097.00
2023-01-03T18:05:17.580Z,102098.47
2023-01-03T18:08:06.494Z,102099.53
2023-01-03T18:10:53.503Z,102101.31
2023-01-03T18:13:38.702Z,102090.16
2023-01-03T18:16:24.115Z,102097.63
2023-01-03T18:19:09.973Z,102095.53
2023-01-03T18:21:54.987Z,102095.53
2023-01-03T18:24:40.053Z,102094.69
2023-01-03T18:27:27.457Z,102090.34
2023-01-03T18:30:15.955Z,102086.63
2023-01-03T18:33:00.829Z,102084.22
2023-01-03T18:35:45.787Z,102079.28
2023-01-03T18:38:34.184Z,102079.06
2023-01-03T18:41:25.575Z,102080.97
2023-01-03T18:44:24.306Z,102079.16
2023-01-03T18:47:12.680Z,102077.50
2023-01-03T18:49:57.846Z,102078.03
2023-01-03T18:52:42.971Z,102067.91
2023-01-03T18:55:31.375Z,102073.59
2023-01-03T18:58:29.283Z,102069.72
2023-01-03T19:01:14.365Z,102073.50
2023-01-03T19:03:59.736Z,102064.22
2023-01-03T19:06:47.779Z,102064.44
2023-01-03T19:09:32.915Z,102061.91
2023-01-03T19:12:18.732Z,102061.59
2023-01-03T19:15:18.500Z,102054.13
2023-01-03T19:18:03.707Z,102049.59
2023-01-03T19:20:50.620Z,102044.22
2023-01-03T19:23:35.533Z,102024.59
2023-01-03T19:26:30.126Z,102027.56
2023-01-03T19:29:22.136Z,102022.50
2023-01-03T19:32:17.773Z,102010.16
2023-01-03T19:35:02.912Z,102006.03
2023-01-03T19:37:47.922Z,102003.63
2023-01-03T19:40:34.389Z,101994.25
2023-01-03T19:43:21.601Z,101991.63
2023-01-03T19:46:14.531Z,101988.53
2023-01-03T19:48:59.384Z,101981.38
2023-01-03T19:51:44.278Z,101985.19
2023-01-03T19:54:29.068Z,101983.19
2023-01-03T19:57:25.563Z,101981.59
2023-01-03T20:00:25.887Z,101980.34
2023-01-03T20:03:25.540Z,101977.81
2023-01-03T20:06:17.405Z,101974.44
2023-01-03T20:09:02.649Z,101983.28
2023-01-03T20:11:52.674Z,101991.38
2023-01-03T20:14:38.565Z,101987.03
2023-01-03T20:17:25.419Z,101991.50
2023-01-03T20:20:12.847Z,101984.41
2023-01-03T20:23:12.327Z,101989.59
2023-01-03T20:25:57.277Z,101991.16
2023-01-03T20:28:42.497Z,101989.59
2023-01-03T20:31:27.953Z,101992.50
2023-01-03T20:34:12.817Z,101993.88
2023-01-03T20:37:01.340Z,101993.28
2023-01-03T20:39:46.450Z,101983.66
2023-01-03T20:42:31.485Z,101976.19
2023-01-03T20:45:17.484Z,101967.56
2023-01-03T20:48:02.368Z,101961.56
2023-01-03T20:50:47.502Z,101961.81
2023-01-03T20:53:32.312Z,101957.94
2023-01-03T20:56:17.185Z,101973.06
2023-01-03T20:59:02.104Z,101964.13
2023-01-03T21:01:48.981Z,101964.84
2023-01-03T21:04:34.167Z,101955.34
2023-01-03T21:07:49.943Z,101953.94
2023-01-03T21:10:40.564Z,101958.94
2023-01-03T21:13:25.671Z,101952.84
2023-01-03T21:16:28.087Z,101961.72
2023-01-03T21:19:14.324Z,101963.91
2023-01-03T21:21:59.988Z,101968.31
2023-01-03T21:24:46.040Z,101962.53
2023-01-03T21:27:31.454Z,101962.88
2023-01-03T21:30:18.104Z,101960.53
2023-01-03T21:33:03.448Z,101949.69
2023-01-03T21:35:50.424Z,101949.25
2023-01-03T21:38:35.563Z,101948.03
2023-01-03T21:41:29.304Z,101944.63
2023-01-03T21:44:14.521Z,101934.25
2023-01-03T21:46:59.477Z,101924.88
2023-01-03T21:49:44.527Z,101919.38
2023-01-03T21:52:29.303Z,101915.81
2023-01-03T21:55:14.190Z,101910.91
2023-01-03T21:57:59.385Z,101903.13
2023-01-03T22:00:45.423Z,101903.44
2023-01-03T22:03:49.441Z,101897.97
2023-01-03T22:06:34.657Z,101902.25
2023-01-03T22:09:38.411Z,101893.63
2023-01-03T22:12:24.458Z,101889.34
2023-01-03T22:15:09.708Z,101882.97
2023-01-03T22:17:55.249Z,101876.44
2023-01-03T22:20:41.137Z,101878.94
2023-01-03T22:23:26.088Z,101870.00
2023-01-03T22:26:13.220Z,101866.16
2023-01-03T22:28:58.339Z,101873.94
2023-01-03T22:31:46.962Z,101878.63
2023-01-03T22:34:31.709Z,101870.31
2023-01-03T22:37:17.247Z,101876.91
2023-01-03T22:40:02.458Z,101865.03
2023-01-03T22:42:47.602Z,101871.44
2023-01-03T22:45:32.476Z,101861.72
2023-01-03T22:48:17.349Z,101860.75
2023-01-03T22:51:07.546Z,101855.38
2023-01-03T22:53:52.423Z,101853.59
2023-01-03T22:56:37.529Z,101849.97
2023-01-03T22:59:22.684Z,101858.13
2023-01-03T23:02:08.042Z,101860.06
2023-01-03T23:04:53.099Z,101850.13
2023-01-03T23:07:44.858Z,101847.75
2023-01-03T23:10:29.812Z,101853.97
2023-01-03T23:13:14.778Z,101847.63
2023-01-03T23:16:01.481Z,101839.69
2023-01-03T23:18:46.984Z,101834.88
2023-01-03T23:21:32.972Z,101829.13
2023-01-03T23:24:24.806Z,101803.84
2023-01-03T23:27:09.737Z,101802.75
2023-01-03T23:29:55.114Z,101785.59
2023-01-03T23:32:40.195Z,101781.50
2023-01-03T23:35:25.111Z,101771.28
2023-01-03T23:38:10.038Z,101772.28
2023-01-03T23:40:54.869Z,101750.06
2023-01-03T23:43:39.860Z,101748.75
2023-01-03T23:46:24.859Z,101749.56
2023-01-03T23:49:12.591Z,101744.63
2023-01-03T23:51:57.301Z,101742.09
2023-01-03T23:54:42.562Z,101742.72
2023-01-03T23:57:27.337Z,101738.13
